Time;durP1;ratioP1;P1;durP2;ratioP2;P2;SDS_P1;SDS_P2;PMS_P1;PMS_P2;Temp;Humidity;BMP_temperature;BMP_pressure;BME280_temperature;BME280_humidity;BME280_pressure;Samples;Min_cycle;Max_cycle;Signal;HPM_P1;HPM_P2
2022/07/28 00:02:10;;;;;;;2.70;1.40;;;;;;;15.12;100.00;101872.72;5250769;28;20078;-74
2022/07/28 00:04:41;;;;;;;6.45;1.58;;;;;;;15.09;100.00;101864.94;5241531;28;20054;-73
2022/07/28 00:07:11;;;;;;;6.32;1.70;;;;;;;15.06;100.00;101867.13;5256520;28;20028;-72
2022/07/28 00:09:41;;;;;;;7.65;1.85;;;;;;;15.03;100.00;101862.91;5263071;28;20543;-73
2022/07/28 00:12:12;;;;;;;5.15;1.42;;;;;;;15.01;100.00;101867.66;5246609;28;20077;-73
2022/07/28 00:14:43;;;;;;;3.10;1.33;;;;;;;14.98;100.00;101866.13;5259280;28;20097;-72
2022/07/28 00:17:13;;;;;;;2.97;1.27;;;;;;;14.95;100.00;101869.16;5246253;28;20110;-73
2022/07/28 00:19:44;;;;;;;5.70;1.80;;;;;;;14.92;100.00;101860.56;5250258;28;20020;-72
2022/07/28 00:22:14;;;;;;;6.22;1.27;;;;;;;14.90;100.00;101865.28;5246163;28;20371;-73
2022/07/28 00:24:45;;;;;;;4.68;1.83;;;;;;;14.86;100.00;101869.34;5253988;28;20393;-72
2022/07/28 00:27:17;;;;;;;7.47;1.92;;;;;;;14.83;100.00;101865.13;5265240;28;20024;-73
2022/07/28 00:29:47;;;;;;;3.20;1.50;;;;;;;14.77;100.00;101866.66;5246326;28;20016;-72
2022/07/28 00:32:19;;;;;;;8.15;1.60;;;;;;;14.72;100.00;101865.47;5245780;28;20496;-71
2022/07/28 00:34:50;;;;;;;6.07;1.58;;;;;;;14.67;100.00;101859.75;5245634;28;20032;-71
2022/07/28 00:37:20;;;;;;;3.42;1.67;;;;;;;14.64;100.00;101852.81;5250748;28;20028;-73
2022/07/28 00:39:51;;;;;;;7.70;1.88;;;;;;;14.63;100.00;101848.41;5247229;28;20035;-73
2022/07/28 00:42:21;;;;;;;5.82;1.27;;;;;;;14.60;100.00;101843.34;5259428;28;20417;-72
2022/07/28 00:44:51;;;;;;;7.50;1.90;;;;;;;14.57;100.00;101853.66;5244981;28;20154;-73
2022/07/28 00:47:22;;;;;;;6.35;1.90;;;;;;;14.53;100.00;101847.75;5246011;28;20029;-74
2022/07/28 00:49:53;;;;;;;5.78;1.67;;;;;;;14.48;100.00;101839.31;5245426;28;20020;-74
2022/07/28 00:52:24;;;;;;;8.60;1.60;;;;;;;14.42;100.00;101843.47;5245766;28;20020;-72
2022/07/28 00:54:56;;;;;;;5.72;1.70;;;;;;;14.37;100.00;101839.59;5245155;28;20039;-73
2022/07/28 00:57:27;;;;;;;4.72;1.70;;;;;;;14.30;100.00;101841.25;5255448;28;20090;-73
2022/07/28 00:59:57;;;;;;;6.25;1.70;;;;;;;14.21;100.00;101837.72;5252504;28;20603;-73
2022/07/28 01:02:28;;;;;;;4.50;1.85;;;;;;;14.14;100.00;101837.53;5266975;28;20028;-72
2022/07/28 01:04:58;;;;;;;4.32;1.63;;;;;;;14.08;100.00;101832.78;5235925;28;20111;-72
2022/07/28 01:07:33;;;;;;;7.30;2.50;;;;;;;14.04;100.00;101836.00;5245268;28;20024;-74
2022/07/28 01:10:12;;;;;;;3.50;1.58;;;;;;;14.01;100.00;101829.09;5253395;28;20529;-72
2022/07/28 01:13:03;;;;;;;5.68;1.70;;;;;;;13.95;100.00;101827.03;5253089;28;20028;-72
2022/07/28 01:15:39;;;;;;;9.55;2.10;;;;;;;13.91;100.00;101823.81;5252907;28;20468;-73
2022/07/28 01:18:17;;;;;;;3.08;1.55;;;;;;;13.87;100.00;101822.47;5231553;28;20028;-73
2022/07/28 01:20:53;;;;;;;3.60;1.55;;;;;;;13.84;100.00;101819.25;5250061;28;20047;-72
2022/07/28 01:24:01;;;;;;;3.47;1.67;;;;;;;13.80;100.00;101817.88;5256255;28;20032;-72
2022/07/28 01:26:36;;;;;;;5.93;1.40;;;;;;;13.75;100.00;101821.06;5243749;28;20088;-72
2022/07/28 01:29:35;;;;;;;5.95;1.38;;;;;;;13.71;100.00;101825.13;5266239;28;20023;-71
2022/07/28 01:32:12;;;;;;;6.57;1.50;;;;;;;13.64;100.00;101819.50;5266012;28;20028;-72
2022/07/28 01:35:07;;;;;;;5.65;1.48;;;;;;;13.59;100.00;101823.69;5256245;28;20188;-71
2022/07/28 01:37:44;;;;;;;4.87;1.40;;;;;;;13.58;100.00;101825.56;5245020;28;20025;-72
2022/07/28 01:40:18;;;;;;;6.63;1.50;;;;;;;13.55;100.00;101811.53;5244722;28;20291;-72
2022/07/28 01:42:55;;;;;;;10.95;1.80;;;;;;;13.48;100.00;101825.69;5245259;28;20073;-72
2022/07/28 01:45:36;;;;;;;6.53;1.60;;;;;;;13.41;100.00;101818.41;5244816;28;20078;-72
2022/07/28 01:48:09;;;;;;;4.60;1.65;;;;;;;13.39;100.00;101815.00;5257613;28;20051;-71
2022/07/28 01:50:42;;;;;;;3.17;1.50;;;;;;;13.37;100.00;101811.66;5244695;28;20024;-72
2022/07/28 01:53:15;;;;;;;7.57;1.30;;;;;;;13.36;100.00;101801.88;5245080;28;20032;-72
2022/07/28 01:55:48;;;;;;;9.73;1.95;;;;;;;13.33;100.00;101800.34;5244058;28;20478;-74
2022/07/28 01:58:21;;;;;;;7.13;1.67;;;;;;;13.31;100.00;101806.91;5261595;28;20055;-71
2022/07/28 02:00:54;;;;;;;7.95;2.20;;;;;;;13.29;100.00;101800.81;5265788;28;20027;-71
2022/07/28 02:03:28;;;;;;;2.45;1.33;;;;;;;13.26;100.00;101798.47;5241134;28;20100;-72
2022/07/28 02:06:01;;;;;;;5.55;1.70;;;;;;;13.20;100.00;101800.75;5236637;28;20031;-73
2022/07/28 02:08:38;;;;;;;7.30;1.98;;;;;;;13.19;100.00;101795.50;5253406;28;20556;-73
2022/07/28 02:13:59;;;;;;;5.45;2.03;;;;;;;13.12;100.00;101802.56;5252861;28;20127;-72
2022/07/28 02:16:31;;;;;;;4.00;1.90;;;;;;;13.09;100.00;101802.88;5243483;28;20032;-71
2022/07/28 02:19:02;;;;;;;4.50;1.73;;;;;;;13.05;100.00;101793.41;5243141;28;20020;-72
2022/07/28 02:21:35;;;;;;;4.32;1.50;;;;;;;13.00;100.00;101804.66;5244482;28;20028;-73
2022/07/28 02:24:08;;;;;;;4.38;1.65;;;;;;;12.95;100.00;101802.47;5244346;28;20153;-72
2022/07/28 02:26:43;;;;;;;9.07;1.98;;;;;;;12.91;100.00;101802.94;5244767;28;20466;-73
2022/07/28 02:29:19;;;;;;;2.40;1.27;;;;;;;12.87;100.00;101802.41;5244766;28;20025;-71
2022/07/28 02:31:56;;;;;;;3.67;1.48;;;;;;;12.85;100.00;101803.53;5244850;28;20371;-73
2022/07/28 02:34:27;;;;;;;5.95;1.50;;;;;;;12.82;100.00;101801.19;5252393;28;20032;-72
2022/07/28 02:37:01;;;;;;;5.75;1.30;;;;;;;12.83;100.00;101806.41;5252076;28;20024;-73
2022/07/28 02:39:39;;;;;;;3.03;1.58;;;;;;;12.85;100.00;101793.66;5266674;28;20024;-72
2022/07/28 02:42:16;;;;;;;3.17;2.00;;;;;;;12.86;100.00;101795.34;5247955;28;20021;-71
2022/07/28 02:44:55;;;;;;;4.80;1.27;;;;;;;12.86;100.00;101792.63;5243800;28;20394;-72
2022/07/28 02:47:30;;;;;;;2.35;1.33;;;;;;;12.86;100.00;101798.03;5239115;28;20020;-73
2022/07/28 02:50:02;;;;;;;6.43;1.60;;;;;;;12.86;100.00;101795.34;5251635;28;20089;-71
2022/07/28 02:52:34;;;;;;;12.32;1.70;;;;;;;12.84;100.00;101781.16;5265437;28;20020;-71
2022/07/28 02:55:06;;;;;;;9.60;2.03;;;;;;;12.84;100.00;101780.31;5264769;28;20490;-72
2022/07/28 02:57:39;;;;;;;7.28;1.60;;;;;;;12.81;100.00;101773.41;5258769;28;20117;-72
2022/07/28 03:00:10;;;;;;;7.35;2.15;;;;;;;12.80;100.00;101779.81;5250907;28;20063;-71
2022/07/28 03:02:45;;;;;;;13.80;1.90;;;;;;;12.80;100.00;101774.44;5265331;28;20114;-71
2022/07/28 03:05:16;;;;;;;9.98;2.90;;;;;;;12.83;100.00;101781.34;5230619;28;20016;-71
2022/07/28 03:07:51;;;;;;;7.05;1.50;;;;;;;12.82;100.00;101780.50;5257836;28;20401;-71
2022/07/28 03:10:25;;;;;;;9.02;2.10;;;;;;;12.83;100.00;101781.34;5244275;28;20024;-70
2022/07/28 03:12:56;;;;;;;2.95;1.70;;;;;;;12.84;100.00;101778.47;5243893;28;20401;-71
2022/07/28 03:15:26;;;;;;;4.38;1.98;;;;;;;12.85;100.00;101780.19;5243567;28;20051;-71
2022/07/28 03:17:57;;;;;;;6.68;2.05;;;;;;;12.84;100.00;101777.63;5262272;28;20058;-70
2022/07/28 03:20:29;;;;;;;7.18;1.90;;;;;;;12.81;100.00;101775.28;5252251;28;20100;-71
2022/07/28 03:23:00;;;;;;;5.25;1.83;;;;;;;12.81;100.00;101777.97;5264219;28;20024;-71
2022/07/28 03:25:49;;;;;;;3.08;1.63;;;;;;;12.80;100.00;101776.25;5263693;28;20058;-71
2022/07/28 03:28:22;;;;;;;6.18;1.60;;;;;;;12.80;100.00;101776.25;5243815;28;20112;-71
2022/07/28 03:30:57;;;;;;;6.63;2.00;;;;;;;12.78;100.00;101773.72;5247291;28;20482;-72
2022/07/28 03:33:28;;;;;;;7.03;2.20;;;;;;;12.79;100.00;101779.94;5259812;28;20052;-71
2022/07/28 03:36:04;;;;;;;4.90;1.60;;;;;;;12.77;100.00;101780.13;5261477;28;20098;-71
2022/07/28 03:38:40;;;;;;;2.67;1.48;;;;;;;12.77;100.00;101774.72;5248610;28;20021;-72
2022/07/28 03:41:12;;;;;;;5.25;2.10;;;;;;;12.77;100.00;101776.59;5259177;28;20032;-71
2022/07/28 03:43:43;;;;;;;4.95;1.77;;;;;;;12.78;100.00;101780.97;5264644;28;20032;-72
2022/07/28 03:46:14;;;;;;;6.28;1.95;;;;;;;12.78;100.00;101780.97;5256083;28;20032;-73
2022/07/28 03:48:44;;;;;;;7.68;2.25;;;;;;;12.79;100.00;101788.03;5246713;28;20030;-71
2022/07/28 03:51:15;;;;;;;7.10;2.28;;;;;;;12.80;100.00;101787.03;5259585;28;20020;-72
2022/07/28 03:53:46;;;;;;;7.07;2.10;;;;;;;12.80;100.00;101793.28;5248160;28;20107;-72
2022/07/28 03:56:16;;;;;;;8.32;2.97;;;;;;;12.80;100.00;101790.59;5246230;28;20343;-72
2022/07/28 03:58:47;;;;;;;11.82;2.25;;;;;;;12.78;100.00;101784.50;5260296;28;20029;-73
2022/07/28 04:01:17;;;;;;;7.03;2.13;;;;;;;12.75;100.00;101779.44;5247094;28;20128;-71
2022/07/28 04:03:48;;;;;;;7.63;2.00;;;;;;;12.70;100.00;101785.31;5238196;28;20021;-71
2022/07/28 04:06:18;;;;;;;6.47;2.20;;;;;;;12.66;100.00;101785.75;5242039;28;20028;-71
2022/07/28 04:08:49;;;;;;;8.60;3.00;;;;;;;12.63;100.00;101786.91;5257161;28;20028;-73
2022/07/28 04:11:19;;;;;;;5.38;1.90;;;;;;;12.61;100.00;101783.53;5250309;28;20025;-72
2022/07/28 04:13:50;;;;;;;5.03;2.20;;;;;;;12.61;100.00;101788.94;5246829;28;20029;-71
2022/07/28 04:16:21;;;;;;;5.85;1.80;;;;;;;12.62;100.00;101784.38;5245898;28;20479;-71
2022/07/28 04:18:51;;;;;;;4.97;1.90;;;;;;;12.60;100.00;101781.84;5259148;28;20032;-71
2022/07/28 04:21:22;;;;;;;5.03;2.20;;;;;;;12.60;100.00;101776.47;5253734;28;20073;-72
2022/07/28 04:23:52;;;;;;;3.92;1.70;;;;;;;12.63;100.00;101773.44;5267227;28;20028;-72
2022/07/28 04:26:23;;;;;;;6.18;2.08;;;;;;;12.67;100.00;101792.84;5246086;28;20020;-72
2022/07/28 04:28:53;;;;;;;7.32;2.05;;;;;;;12.72;100.00;101785.13;5247890;28;20025;-73
2022/07/28 04:31:24;;;;;;;6.72;1.80;;;;;;;12.77;100.00;101776.59;5259256;28;20382;-72
2022/07/28 04:33:54;;;;;;;3.60;1.50;;;;;;;12.80;100.00;101785.19;5246278;28;20024;-73
2022/07/28 04:36:25;;;;;;;3.13;2.20;;;;;;;12.86;100.00;101789.09;5256365;28;20032;-72
2022/07/28 04:38:58;;;;;;;5.85;1.85;;;;;;;12.87;100.00;101780.84;5253780;28;20470;-73
2022/07/28 04:41:28;;;;;;;6.40;2.40;;;;;;;12.91;100.00;101782.22;5254657;28;20028;-74
2022/07/28 04:43:59;;;;;;;4.97;2.25;;;;;;;12.96;100.00;101789.84;5259993;28;20046;-73
2022/07/28 04:46:29;;;;;;;7.88;1.80;;;;;;;12.99;100.00;101786.81;5245096;28;20020;-72
2022/07/28 04:48:59;;;;;;;6.40;2.05;;;;;;;13.01;100.00;101783.97;5266664;28;20031;-72
2022/07/28 04:51:30;;;;;;;7.38;2.33;;;;;;;13.05;100.00;101775.44;5266938;28;20084;-72
2022/07/28 04:54:00;;;;;;;4.63;2.10;;;;;;;13.08;100.00;101771.53;5258536;28;20038;-72
2022/07/28 04:56:31;;;;;;;5.93;2.25;;;;;;;13.12;100.00;101770.22;5247808;28;20025;-72
2022/07/28 04:59:02;;;;;;;8.40;2.05;;;;;;;13.16;100.00;101777.00;5257766;28;20016;-73
2022/07/28 05:01:33;;;;;;;6.82;2.22;;;;;;;13.19;100.00;101768.56;5249530;28;20031;-73
2022/07/28 05:04:04;;;;;;;10.07;2.47;;;;;;;13.22;100.00;101765.59;5255267;28;20469;-73
2022/07/28 05:06:35;;;;;;;9.43;2.58;;;;;;;13.29;100.00;101765.78;5247154;28;20317;-74
2022/07/28 05:09:05;;;;;;;9.05;1.90;;;;;;;13.33;100.00;101765.31;5246012;28;20024;-73
2022/07/28 05:11:36;;;;;;;9.30;2.20;;;;;;;13.37;100.00;101766.69;5246157;28;20115;-73
2022/07/28 05:14:06;;;;;;;15.57;2.40;;;;;;;13.43;100.00;101760.63;5257408;28;20528;-74
2022/07/28 05:16:37;;;;;;;7.32;2.13;;;;;;;13.49;100.00;101764.53;5258517;28;20024;-75
2022/07/28 05:19:07;;;;;;;6.97;2.13;;;;;;;13.58;100.00;101763.53;5245238;28;20513;-73
2022/07/28 05:21:39;;;;;;;5.43;2.30;;;;;;;13.66;100.00;101771.66;5254607;28;20055;-73
2022/07/28 05:24:12;;;;;;;4.03;1.77;;;;;;;13.72;100.00;101768.31;5251892;28;20042;-73
2022/07/28 05:26:42;;;;;;;4.60;2.10;;;;;;;13.79;100.00;101768.47;5256594;28;20051;-73
2022/07/28 05:29:13;;;;;;;13.60;2.28;;;;;;;13.84;100.00;101768.84;5249017;28;20028;-73
2022/07/28 05:31:43;;;;;;;14.95;2.35;;;;;;;13.86;100.00;101774.09;5254787;28;20048;-74
2022/07/28 05:34:14;;;;;;;9.02;2.88;;;;;;;13.88;100.00;101777.44;5263147;28;20028;-74
2022/07/28 05:36:44;;;;;;;6.60;2.30;;;;;;;13.88;100.00;101777.44;5266198;28;20024;-74
2022/07/28 05:39:15;;;;;;;4.70;2.10;;;;;;;13.87;100.00;101771.22;5252234;28;20027;-74
2022/07/28 05:41:45;;;;;;;5.57;2.30;;;;;;;13.80;100.00;101772.88;5266198;28;20140;-73
2022/07/28 05:44:16;;;;;;;6.72;2.42;;;;;;;13.77;100.00;101775.06;5264071;28;20084;-73
2022/07/28 05:46:46;;;;;;;6.63;2.30;;;;;;;13.74;100.00;101771.66;5252140;28;20024;-74
2022/07/28 05:49:17;;;;;;;4.50;1.85;;;;;;;13.73;100.00;101780.78;5265973;28;20081;-74
2022/07/28 05:51:47;;;;;;;4.32;2.40;;;;;;;13.70;100.00;101775.72;5250042;28;20020;-71
2022/07/28 05:54:18;;;;;;;11.73;2.25;;;;;;;13.68;100.00;101782.28;5252691;28;20032;-75
2022/07/28 05:56:49;;;;;;;5.80;2.33;;;;;;;13.67;100.00;101773.34;5252367;28;20466;-73
2022/07/28 05:59:20;;;;;;;5.60;2.35;;;;;;;13.69;100.00;101778.56;5254254;28;20409;-74
2022/07/28 06:01:50;;;;;;;4.40;2.45;;;;;;;13.71;100.00;101777.41;5249765;28;20107;-73
2022/07/28 06:04:21;;;;;;;8.20;2.45;;;;;;;13.94;100.00;101780.31;5237561;28;20025;-73
2022/07/28 06:06:51;;;;;;;8.43;2.70;;;;;;;14.60;100.00;101780.41;5244769;28;20393;-73
2022/07/28 06:09:22;;;;;;;6.82;2.47;;;;;;;15.30;100.00;101777.88;5258188;28;20028;-73
2022/07/28 06:11:52;;;;;;;8.93;2.85;;;;;;;16.39;100.00;101793.16;5253490;28;20032;-74
2022/07/28 06:14:23;;;;;;;8.20;2.45;;;;;;;17.34;100.00;101788.00;5248303;28;20494;-72
2022/07/28 06:16:53;;;;;;;9.93;1.92;;;;;;;18.06;100.00;101786.41;5244881;28;20103;-72
2022/07/28 06:19:24;;;;;;;4.22;2.17;;;;;;;18.70;100.00;101791.00;5257683;28;20119;-72
2022/07/28 06:21:54;;;;;;;4.85;2.13;;;;;;;19.12;100.00;101792.75;5244298;28;20078;-72
2022/07/28 06:24:25;;;;;;;11.23;2.25;;;;;;;19.40;100.00;101787.25;5243774;28;20115;-72
2022/07/28 06:26:55;;;;;;;6.80;2.05;;;;;;;19.54;100.00;101785.44;5243330;28;20424;-70
2022/07/28 06:29:26;;;;;;;6.00;2.67;;;;;;;19.80;100.00;101790.19;5250011;28;20470;-69
2022/07/28 06:31:56;;;;;;;6.00;1.90;;;;;;;20.08;100.00;101790.03;5256769;28;20020;-69
2022/07/28 06:34:27;;;;;;;3.63;1.83;;;;;;;20.28;100.00;101779.19;5243417;28;20021;-69
2022/07/28 06:36:57;;;;;;;4.55;2.10;;;;;;;20.35;100.00;101783.59;5243874;28;20033;-70
2022/07/28 06:39:28;;;;;;;7.05;1.88;;;;;;;20.36;100.00;101784.44;5244209;28;20024;-70
2022/07/28 06:41:58;;;;;;;6.43;1.98;;;;;;;20.44;100.00;101782.34;5244280;28;20123;-69
2022/07/28 06:44:29;;;;;;;3.80;1.83;;;;;;;20.71;100.00;101779.66;5243405;28;20032;-71
2022/07/28 06:46:59;;;;;;;8.73;1.90;;;;;;;20.75;100.00;101783.63;5257522;28;20103;-71
2022/07/28 06:49:30;;;;;;;4.13;1.75;;;;;;;21.06;100.00;101779.41;5255246;28;20405;-70
2022/07/28 06:52:00;;;;;;;7.70;2.13;;;;;;;21.37;100.00;101785.00;5259733;28;20070;-70
2022/07/28 06:54:31;;;;;;;6.72;1.98;;;;;;;21.83;100.00;101783.13;5243505;28;20250;-70
2022/07/28 06:57:02;;;;;;;6.07;1.90;;;;;;;22.16;100.00;101778.34;5251102;28;20024;-69
2022/07/28 06:59:33;;;;;;;6.50;1.98;;;;;;;22.63;98.93;101781.53;5251475;28;20026;-70
2022/07/28 07:02:03;;;;;;;4.85;1.63;;;;;;;22.96;94.60;101789.47;5265276;28;20035;-70
2022/07/28 07:04:34;;;;;;;7.07;1.70;;;;;;;23.17;88.50;101779.16;5238581;28;20398;-70
2022/07/28 07:07:05;;;;;;;7.45;2.00;;;;;;;23.10;89.04;101781.97;5236831;28;20066;-70
2022/07/28 07:09:36;;;;;;;5.07;2.00;;;;;;;23.15;89.30;101775.84;5264840;28;20036;-70
2022/07/28 07:12:07;;;;;;;5.55;2.45;;;;;;;23.25;87.34;101779.72;5258361;28;20028;-70
2022/07/28 07:14:37;;;;;;;4.35;1.83;;;;;;;23.82;87.22;101787.66;5251639;28;20040;-70
2022/07/28 07:17:08;;;;;;;5.20;2.00;;;;;;;24.04;84.80;101780.59;5256871;28;20103;-71
2022/07/28 07:19:38;;;;;;;8.27;1.70;;;;;;;24.15;83.99;101780.88;5247342;28;20081;-71
2022/07/28 07:22:09;;;;;;;5.03;1.80;;;;;;;23.54;83.54;101777.25;5261037;28;20027;-70
2022/07/28 07:24:39;;;;;;;7.50;1.95;;;;;;;23.83;82.25;101766.56;5247095;28;20021;-70
2022/07/28 07:27:10;;;;;;;9.57;2.53;;;;;;;23.29;80.33;101769.13;5247258;28;20039;-70
2022/07/28 07:29:40;;;;;;;6.47;2.30;;;;;;;22.73;84.31;101767.38;5255340;28;20020;-70
2022/07/28 07:32:11;;;;;;;10.15;2.05;;;;;;;22.52;87.76;101773.25;5252705;28;20066;-70
2022/07/28 07:34:41;;;;;;;5.40;1.80;;;;;;;22.85;88.77;101772.94;5247056;28;20028;-70
2022/07/28 07:37:13;;;;;;;4.75;1.83;;;;;;;23.77;84.58;101766.44;5247026;28;20111;-71
2022/07/28 07:39:44;;;;;;;5.97;2.00;;;;;;;23.63;81.56;101775.03;5247293;28;20367;-71
2022/07/28 07:42:15;;;;;;;4.68;1.90;;;;;;;22.69;83.50;101769.72;5247219;28;20031;-72
2022/07/28 07:44:46;;;;;;;6.75;1.98;;;;;;;22.03;88.41;101767.44;5246698;28;20047;-70
2022/07/28 07:47:17;;;;;;;11.82;2.65;;;;;;;22.14;88.79;101763.22;5247563;28;20474;-70
2022/07/28 07:49:48;;;;;;;8.52;1.90;;;;;;;22.75;89.52;101762.53;5260691;28;20069;-70
2022/07/28 07:52:18;;;;;;;6.68;1.85;;;;;;;23.24;85.19;101755.28;5247385;28;20017;-71
2022/07/28 07:54:49;;;;;;;3.80;1.90;;;;;;;23.92;84.63;101751.50;5260932;28;20020;-70
2022/07/28 07:57:19;;;;;;;5.90;1.85;;;;;;;24.45;81.96;101756.16;5257899;28;20031;-71
2022/07/28 07:59:50;;;;;;;8.85;2.20;;;;;;;24.60;79.00;101756.56;5252072;28;20107;-71
2022/07/28 08:02:20;;;;;;;10.63;2.20;;;;;;;24.67;79.96;101753.69;5248016;28;20028;-71
2022/07/28 08:04:51;;;;;;;7.60;2.25;;;;;;;24.96;77.19;101755.47;5246764;28;20471;-71
2022/07/28 08:07:21;;;;;;;7.63;1.95;;;;;;;25.06;75.63;101754.88;5258605;28;20027;-71
2022/07/28 08:09:52;;;;;;;9.50;2.40;;;;;;;25.18;75.09;101754.88;5248466;28;20021;-71
2022/07/28 08:12:22;;;;;;;6.68;2.38;;;;;;;25.12;74.11;101742.13;5259549;28;20027;-70
2022/07/28 08:14:53;;;;;;;5.43;1.90;;;;;;;25.28;74.23;101738.59;5259808;28;20048;-71
2022/07/28 08:17:24;;;;;;;5.43;1.67;;;;;;;25.46;74.59;101735.69;5260069;28;20028;-71
2022/07/28 08:19:54;;;;;;;3.88;1.52;;;;;;;25.77;73.05;101722.59;5263800;28;20086;-71
2022/07/28 08:22:25;;;;;;;10.20;2.75;;;;;;;26.07;70.30;101717.63;5247893;28;20334;-71
2022/07/28 08:24:59;;;;;;;5.20;1.88;;;;;;;25.39;68.52;101729.50;5258469;28;20459;-72
2022/07/28 08:27:29;;;;;;;4.68;2.13;;;;;;;25.21;68.92;101724.19;5260016;28;20061;-71
2022/07/28 08:30:00;;;;;;;7.60;1.67;;;;;;;24.78;70.49;101718.00;5256561;28;20078;-71
2022/07/28 08:32:31;;;;;;;6.78;1.88;;;;;;;25.12;72.20;101720.16;5267356;28;20028;-71
2022/07/28 08:35:01;;;;;;;10.48;2.38;;;;;;;25.52;71.72;101700.91;5255343;28;20119;-71
2022/07/28 08:37:32;;;;;;;6.57;1.95;;;;;;;24.86;69.24;101716.81;5252483;28;20077;-71
2022/07/28 08:40:03;;;;;;;5.68;1.83;;;;;;;25.00;69.49;101715.50;5247418;28;20095;-71
2022/07/28 08:42:42;;;;;;;7.63;2.25;;;;;;;25.01;69.65;101706.16;5258652;28;20021;-71
2022/07/28 08:45:14;;;;;;;8.02;2.08;;;;;;;24.82;70.89;101707.38;5260035;28;20374;-71
2022/07/28 08:47:48;;;;;;;9.38;2.53;;;;;;;24.78;69.99;101719.91;5265449;28;20040;-71
2022/07/28 08:50:23;;;;;;;6.03;1.50;;;;;;;24.53;67.82;101706.44;5249407;28;20031;-71
2022/07/28 08:52:54;;;;;;;7.22;1.90;;;;;;;24.87;70.31;101709.41;5245124;28;20025;-71
2022/07/28 08:55:27;;;;;;;6.40;1.63;;;;;;;24.79;68.30;101716.94;5249879;28;20031;-71
2022/07/28 08:57:58;;;;;;;5.15;1.77;;;;;;;25.16;69.69;101704.88;5249871;28;20397;-71
2022/07/28 09:00:29;;;;;;;4.75;1.88;;;;;;;25.20;68.17;101709.63;5265896;28;20024;-71
2022/07/28 09:03:02;;;;;;;6.68;1.85;;;;;;;25.45;66.51;101698.31;5249436;28;20031;-71
2022/07/28 09:05:33;;;;;;;5.93;1.92;;;;;;;25.40;66.03;101711.94;5245242;28;20100;-71
2022/07/28 09:08:05;;;;;;;9.13;2.08;;;;;;;25.80;66.88;101705.59;5241514;28;20028;-71
2022/07/28 09:10:35;;;;;;;12.30;2.17;;;;;;;26.20;65.91;101715.63;5244817;28;20024;-71
2022/07/28 09:13:06;;;;;;;6.28;1.83;;;;;;;26.06;62.57;101704.97;5263001;28;20020;-71
2022/07/28 09:15:36;;;;;;;4.80;1.80;;;;;;;25.92;64.56;101700.03;5252906;28;20486;-71
2022/07/28 09:18:07;;;;;;;7.45;1.77;;;;;;;26.11;65.17;101709.72;5265456;28;20499;-71
2022/07/28 09:20:38;;;;;;;5.53;1.98;;;;;;;26.30;64.26;101713.03;5252108;28;20029;-71
2022/07/28 09:23:10;;;;;;;16.60;2.20;;;;;;;26.49;62.99;101703.47;5257853;28;20032;-72
2022/07/28 09:25:41;;;;;;;4.25;1.95;;;;;;;26.03;59.60;101713.69;5257535;28;20027;-71
2022/07/28 09:28:15;;;;;;;7.18;1.83;;;;;;;26.04;63.21;101709.88;5254266;28;20028;-71
2022/07/28 09:30:48;;;;;;;8.93;1.92;;;;;;;26.27;64.55;101710.81;5261746;28;20055;-71
2022/07/28 09:33:21;;;;;;;8.45;2.05;;;;;;;26.50;64.89;101702.38;5244797;28;20103;-71
2022/07/28 09:35:55;;;;;;;5.10;1.52;;;;;;;27.00;62.22;101701.44;5250468;28;20034;-72
2022/07/28 09:38:27;;;;;;;9.90;1.98;;;;;;;27.23;61.09;101697.66;5251809;28;20070;-71
2022/07/28 09:41:02;;;;;;;7.57;2.08;;;;;;;26.72;58.95;101713.47;5265362;28;20050;-71
2022/07/28 09:43:35;;;;;;;4.72;1.45;;;;;;;26.63;58.75;101701.22;5265550;28;20016;-70
2022/07/28 09:46:08;;;;;;;5.90;1.70;;;;;;;26.44;60.10;101697.06;5265239;28;20133;-71
2022/07/28 09:48:48;;;;;;;9.70;2.20;;;;;;;26.58;61.35;101698.38;5251482;28;20077;-71
2022/07/28 09:51:21;;;;;;;9.40;2.35;;;;;;;26.40;59.82;101707.69;5265328;28;20043;-71
2022/07/28 09:53:53;;;;;;;10.10;2.42;;;;;;;25.79;59.91;101704.75;5244259;28;20039;-71
2022/07/28 09:56:30;;;;;;;5.80;1.92;;;;;;;25.55;61.45;101700.41;5245276;28;20032;-71
2022/07/28 09:59:02;;;;;;;3.92;1.80;;;;;;;25.80;62.07;101700.09;5264927;28;20012;-71
2022/07/28 10:01:48;;;;;;;6.50;2.00;;;;;;;25.75;58.22;101695.31;5246878;28;20028;-71
2022/07/28 10:04:45;;;;;;;8.55;1.88;;;;;;;25.92;60.50;101694.53;5230414;28;20047;-71
2022/07/28 10:07:16;;;;;;;5.95;1.83;;;;;;;26.33;61.27;101694.13;5245578;28;20028;-71
2022/07/28 10:10:02;;;;;;;9.43;1.80;;;;;;;26.65;60.58;101689.94;5260416;28;20465;-71
2022/07/28 10:12:35;;;;;;;10.45;2.10;;;;;;;26.53;58.74;101690.06;5244967;28;20059;-71
2022/07/28 10:18:13;;;;;;;10.05;1.98;;;;;;;26.63;57.76;101687.47;5244418;28;20028;-71
2022/07/28 10:20:44;;;;;;;6.00;1.55;;;;;;;26.80;57.31;101684.66;5247999;28;20505;-71
2022/07/28 10:23:16;;;;;;;5.50;1.98;;;;;;;27.04;58.00;101677.00;5253216;28;20028;-71
2022/07/28 10:25:47;;;;;;;3.88;2.22;;;;;;;27.24;58.00;101670.94;5264603;28;20435;-72
2022/07/28 10:28:21;;;;;;;4.93;1.65;;;;;;;27.28;56.99;101674.84;5263541;28;20028;-71
2022/07/28 10:30:58;;;;;;;13.95;1.80;;;;;;;27.10;57.80;101659.47;5246042;28;20024;-71
2022/07/28 10:33:31;;;;;;;5.75;1.70;;;;;;;27.04;55.54;101660.47;5244035;28;20394;-71
2022/07/28 10:36:02;;;;;;;5.00;1.85;;;;;;;26.46;55.04;101668.22;5243402;28;20029;-72
2022/07/28 10:38:34;;;;;;;8.95;2.08;;;;;;;26.26;57.61;101662.38;5243059;28;20029;-72
2022/07/28 10:41:07;;;;;;;3.53;1.50;;;;;;;26.15;56.97;101663.28;5269079;28;20036;-72
2022/07/28 10:43:40;;;;;;;7.35;1.40;;;;;;;26.04;58.50;101656.78;5266874;28;20016;-72
2022/07/28 10:46:11;;;;;;;5.72;1.67;;;;;;;25.96;57.61;101649.81;5257901;28;20098;-72
2022/07/28 10:48:43;;;;;;;8.43;1.73;;;;;;;25.87;58.22;101654.06;5254401;28;20493;-72
2022/07/28 10:51:13;;;;;;;5.10;1.85;;;;;;;25.52;56.04;101649.56;5268478;28;20501;-72
2022/07/28 10:54:07;;;;;;;5.13;1.30;;;;;;;25.43;57.68;101639.22;5249343;28;20028;-72
2022/07/28 10:56:50;;;;;;;6.00;1.75;;;;;;;25.65;59.48;101640.16;5251181;28;20027;-72
2022/07/28 10:59:52;;;;;;;8.48;1.30;;;;;;;25.80;58.30;101642.38;5255483;28;20506;-72
2022/07/28 11:02:43;;;;;;;6.75;1.45;;;;;;;25.89;60.17;101635.38;5237352;28;20036;-72
2022/07/28 11:05:35;;;;;;;8.77;1.48;;;;;;;26.64;59.39;101636.00;5235774;28;20055;-71
2022/07/28 11:08:25;;;;;;;6.05;1.50;;;;;;;26.86;56.43;101642.38;5265642;28;20063;-72
2022/07/28 11:10:56;;;;;;;5.80;1.75;;;;;;;26.37;55.22;101649.63;5254702;28;20074;-72
2022/07/28 11:13:29;;;;;;;6.63;1.88;;;;;;;26.15;56.21;101642.13;5259807;28;20489;-72
2022/07/28 11:16:21;;;;;;;4.45;1.33;;;;;;;26.38;58.29;101634.78;5260335;28;20482;-73
2022/07/28 11:19:12;;;;;;;5.18;1.35;;;;;;;26.24;56.36;101635.13;5247448;28;20028;-72
2022/07/28 11:22:13;;;;;;;12.77;1.83;;;;;;;26.01;55.39;101636.16;5254824;28;20039;-72
2022/07/28 11:25:04;;;;;;;4.32;1.33;;;;;;;25.94;56.78;101632.72;5233782;28;20055;-72
2022/07/28 11:27:55;;;;;;;8.20;1.70;;;;;;;25.82;54.30;101640.22;5252211;28;20350;-72
2022/07/28 11:30:30;;;;;;;3.65;1.45;;;;;;;26.08;53.82;101630.47;5254466;28;20359;-72
2022/07/28 11:33:05;;;;;;;5.72;2.00;;;;;;;25.90;55.02;101625.22;5268165;28;20081;-72
2022/07/28 11:35:55;;;;;;;3.60;1.13;;;;;;;26.15;57.38;101625.63;5249480;28;20021;-72
2022/07/28 11:38:26;;;;;;;6.07;1.27;;;;;;;26.44;57.38;101631.88;5260252;28;20054;-72
2022/07/28 11:40:57;;;;;;;5.28;1.58;;;;;;;26.45;54.92;101621.69;5246663;28;20060;-71
2022/07/28 11:43:29;;;;;;;9.20;1.85;;;;;;;26.54;56.97;101626.50;5262090;28;20034;-72
2022/07/28 11:46:00;;;;;;;7.45;1.42;;;;;;;26.08;55.30;101631.31;5258222;28;20476;-72
2022/07/28 11:48:31;;;;;;;7.55;1.55;;;;;;;26.06;55.83;101624.41;5260191;28;20533;-72
2022/07/28 11:51:02;;;;;;;4.38;1.70;;;;;;;26.03;56.53;101628.47;5246736;28;20505;-72
2022/07/28 11:53:51;;;;;;;6.00;1.50;;;;;;;25.86;53.99;101624.91;5246293;28;20036;-72